Terminal Aerodrome Forecast
Issued by NWS Knoxville/Tri Cities, TN

Home | Current Version | Previous Version | Text Only | Print | Product List | Glossary On
Versions: 1 2 3 4 5 6 7 8 9 10 11 12 13 14 15
000
FTUS44 KMRX 161120
TAFCHA
TAF
KCHA 161120Z 1612/1712 VRB02KT P6SM FEW030 BKN090
     FM161700 24006KT P6SM VCTS SCT050CB BKN100
     FM170000 VRB02KT P6SM BKN250=

USA.gov is the U.S. government's official web portal to all federal, state and local government web resources and services.